CDT,Max TemperatureF,Mean TemperatureF,Min TemperatureF,Max Dew PointF,MeanDew PointF,Min DewpointF,Max Humidity, Mean Humidity, Min Humidity, Max Sea Level PressureIn, Mean Sea Level PressureIn, Min Sea Level PressureIn, Max VisibilityMiles, Mean VisibilityMiles, Min VisibilityMiles, Max Wind SpeedMPH, Mean Wind SpeedMPH, Max Gust SpeedMPH,PrecipitationIn, CloudCover, Events, WindDirDegrees
2013-6-1,75,69,63,71,67,63,100,93,73,29.99,29.92,29.80,10,6,1,31,13,39,1.33,6,Rain-Thunderstorm,193
2013-6-2,77,70,63,67,63,61,100,80,56,29.97,29.93,29.90,10,9,4,13,8,,0.00,5,,297
2013-6-3,72,66,59,60,57,53,97,74,51,30.08,30.02,29.97,10,10,7,9,6,,0.00,4,,10
2013-6-4,81,68,54,61,57,54,97,66,45,30.09,30.04,30.00,10,10,10,10,3,,0.00,1,,93
2013-6-5,86,75,64,66,61,58,79,63,41,30.01,29.92,29.82,10,10,10,8,5,,0.00,2,,92
2013-6-6,81,74,68,70,67,63,100,85,56,29.82,29.79,29.76,10,7,2,9,5,,0.27,4,Rain-Thunderstorm,211
2013-6-7,77,72,68,68,66,64,96,82,64,29.87,29.81,29.77,10,6,4,13,4,,0.12,3,Rain,337
2013-6-8,82,74,65,65,63,59,93,71,44,30.01,29.94,29.86,10,7,3,9,4,,0.00,2,,243
2013-6-9,81,72,64,70,66,62,100,85,66,30.03,29.95,29.85,10,7,1,16,7,23,0.30,5,Rain-Thunderstorm,147
2013-6-10,78,72,66,70,67,64,100,93,66,29.94,29.87,29.82,10,7,1,12,7,,0.51,6,Rain-Thunderstorm,222
2013-6-11,88,74,61,76,66,62,100,88,49,30.01,29.96,29.90,10,5,0,9,1,,0.00,0,Fog,198
2013-6-12,93,84,74,76,75,74,97,74,54,29.99,29.89,29.79,10,10,10,23,9,30,0.00,0,,225
2013-6-13,83,78,70,74,65,53,77,60,44,29.98,29.85,29.74,10,10,10,22,15,32,0.00,2,,310
2013-6-14,82,72,61,62,57,53,83,60,35,30.06,30.02,29.96,10,10,10,14,5,,0.00,0,,9
2013-6-15,88,76,63,67,63,60,97,66,39,30.12,30.04,29.98,10,10,10,13,3,,0.00,0,,208
2013-6-16,88,79,70,73,69,65,100,79,57,30.04,29.99,29.96,10,10,7,16,4,,0.03,2,Rain-Thunderstorm,167
2013-6-17,90,79,65,74,69,61,100,83,51,29.97,29.93,29.86,10,7,1,29,5,33,0.82,4,Rain-Thunderstorm,15
2013-6-18,86,75,64,69,65,63,100,76,55,29.97,29.92,29.84,10,10,2,8,6,,0.01,2,Rain-Thunderstorm,49
2013-6-19,86,75,64,66,65,63,96,69,47,30.08,30.03,29.97,10,10,10,10,5,,0.00,1,,85
2013-6-20,88,78,68,69,65,62,84,62,40,30.16,30.12,30.08,10,10,10,9,5,,0.00,2,Rain,113
2013-6-21,90,80,70,72,69,66,97,75,48,30.19,30.14,30.09,10,9,0,25,7,38,1.02,3,Rain-Thunderstorm,152
2013-6-22,91,80,70,75,70,64,97,75,44,30.17,30.11,30.05,10,7,1,24,7,33,0.20,3,Rain-Thunderstorm,180
2013-6-23,88,79,70,73,71,69,97,75,55,30.12,30.08,30.04,10,9,7,13,5,,0.00,0,,176
2013-6-24,79,74,68,73,72,69,100,96,74,30.18,30.12,30.05,10,5,0,12,5,,1.14,5,Fog-Rain-Thunderstorm,211
2013-6-25,92,81,70,77,74,71,100,78,55,30.06,29.99,29.91,10,9,7,14,8,17,0.00,1,,198
2013-6-26,90,82,73,77,75,72,100,84,63,29.94,29.84,29.71,10,8,1,23,9,29,0.43,3,Rain-Thunderstorm,211
2013-6-27,92,82,73,80,75,71,100,79,49,29.84,29.81,29.78,10,9,6,14,7,17,0.00,3,Rain,282
2013-6-28,91,84,77,75,69,62,88,64,38,29.81,29.72,29.64,10,10,7,17,8,24,0.00,2,,294
2013-6-29,86,76,65,67,64,62,97,72,49,29.68,29.65,29.60,10,10,2,16,8,23,0.25,3,Rain-Thunderstorm,284
2013-6-30,77,70,64,69,66,64,100,90,71,29.82,29.75,29.68,10,8,3,9,5,,0.00,5,Rain-Thunderstorm,295